JFA83B EGKB-LFRG
Flight info
| Callsign | JFA83B |
|---|---|
| Flight time | N/A |
| Altitude | 21000 |
| Route | DET DCT LYD DCT ETRAT |
| Aircraft | PC12/L-SDFGRWY/S |
Departure
| Time | 2026-04-20 17:18 |
|---|---|
| Airport | London Biggin Hill Airport (EGKB) |
Arrival
| Time | N/A |
|---|---|
| Airport | Deauville Normandie airport (LFRG) |
| Time | Latitude | Longitude | Altitude | Speed | Heading |
|---|---|---|---|---|---|
| 2026-04-20 17:13 | 51.32149 | 0.03368 | 629 ft | 0 kts | 105° |
| 2026-04-20 17:15 | 51.32161 | 0.03391 | 645 ft | 11 kts | 346° |
| 2026-04-20 17:15 | 51.32227 | 0.03343 | 643 ft | 17 kts | 290° |
| 2026-04-20 17:15 | 51.32237 | 0.03095 | 656 ft | 28 kts | 279° |
| 2026-04-20 17:16 | 51.32268 | 0.02858 | 641 ft | 10 kts | 356° |
| 2026-04-20 17:16 | 51.32318 | 0.02878 | 638 ft | 12 kts | 359° |
| 2026-04-20 17:16 | 51.32369 | 0.02732 | 631 ft | 19 kts | 314° |
| 2026-04-20 17:16 | 51.32419 | 0.02722 | 629 ft | 0 kts | 26° |
| 2026-04-20 17:17 | 51.32429 | 0.02731 | 629 ft | 7 kts | 26° |
| 2026-04-20 17:17 | 51.32549 | 0.02823 | 626 ft | 43 kts | 25° |
| 2026-04-20 17:17 | 51.33018 | 0.03176 | 664 ft | 93 kts | 25° |
| 2026-04-20 17:18 | 51.33683 | 0.03587 | 1056 ft | 116 kts | 25° |
| 2026-04-20 17:18 | 51.34454 | 0.04218 | 1665 ft | 126 kts | 33° |
| 2026-04-20 17:18 | 51.35141 | 0.05017 | 2431 ft | 123 kts | 52° |
| 2026-04-20 17:18 | 51.35466 | 0.06439 | 2728 ft | 163 kts | 86° |
| 2026-04-20 17:19 | 51.35020 | 0.08272 | 2770 ft | 190 kts | 121° |
| 2026-04-20 17:19 | 51.34211 | 0.09922 | 2775 ft | 187 kts | 124° |
| 2026-04-20 17:19 | 51.33599 | 0.11713 | 2776 ft | 182 kts | 104° |
| 2026-04-20 17:19 | 51.33402 | 0.13618 | 3024 ft | 161 kts | 91° |
| 2026-04-20 17:20 | 51.33285 | 0.15319 | 3416 ft | 146 kts | 92° |
| 2026-04-20 17:20 | 51.33180 | 0.16878 | 3796 ft | 137 kts | 90° |
| 2026-04-20 17:20 | 51.33086 | 0.18374 | 4180 ft | 135 kts | 90° |
| 2026-04-20 17:20 | 51.32990 | 0.19883 | 4586 ft | 138 kts | 90° |
| 2026-04-20 17:21 | 51.32892 | 0.21422 | 5013 ft | 141 kts | 91° |
| 2026-04-20 17:21 | 51.32790 | 0.22987 | 5498 ft | 142 kts | 90° |
| 2026-04-20 17:21 | 51.32688 | 0.24559 | 5914 ft | 142 kts | 90° |
| 2026-04-20 17:21 | 51.32585 | 0.26138 | 6331 ft | 143 kts | 90° |
| 2026-04-20 17:22 | 51.32483 | 0.27737 | 6757 ft | 146 kts | 90° |
| 2026-04-20 17:22 | 51.32377 | 0.29368 | 7155 ft | 148 kts | 90° |
| 2026-04-20 17:22 | 51.32269 | 0.31018 | 7566 ft | 150 kts | 91° |
| 2026-04-20 17:22 | 51.32159 | 0.32694 | 7977 ft | 153 kts | 90° |
| 2026-04-20 17:23 | 51.32048 | 0.34393 | 8391 ft | 155 kts | 91° |
| 2026-04-20 17:23 | 51.31935 | 0.36115 | 8809 ft | 157 kts | 91° |
| 2026-04-20 17:23 | 51.31823 | 0.37860 | 9594 ft | 156 kts | 91° |
| 2026-04-20 17:23 | 51.31714 | 0.39606 | 10379 ft | 161 kts | 92° |
| 2026-04-20 17:24 | 51.31598 | 0.41411 | 11078 ft | 166 kts | 92° |
| 2026-04-20 17:24 | 51.31481 | 0.43243 | 11781 ft | 170 kts | 91° |
| 2026-04-20 17:24 | 51.31356 | 0.45155 | 12563 ft | 172 kts | 92° |
| 2026-04-20 17:24 | 51.31233 | 0.47048 | 13313 ft | 175 kts | 93° |
| 2026-04-20 17:25 | 51.31106 | 0.49020 | 14110 ft | 178 kts | 91° |
| 2026-04-20 17:25 | 51.30977 | 0.51011 | 14805 ft | 181 kts | 91° |
| 2026-04-20 17:25 | 51.30847 | 0.53002 | 15495 ft | 184 kts | 91° |
| 2026-04-20 17:25 | 51.30712 | 0.55066 | 16185 ft | 188 kts | 90° |
| 2026-04-20 17:26 | 51.30569 | 0.57165 | 16874 ft | 193 kts | 93° |
| 2026-04-20 17:26 | 51.30094 | 0.59223 | 17560 ft | 203 kts | 119° |
| 2026-04-20 17:26 | 51.29126 | 0.60898 | 18260 ft | 209 kts | 146° |
| 2026-04-20 17:26 | 51.27868 | 0.62092 | 18915 ft | 213 kts | 152° |
| 2026-04-20 17:27 | 51.26577 | 0.63291 | 19527 ft | 217 kts | 153° |
| 2026-04-20 17:27 | 51.25259 | 0.64517 | 20140 ft | 222 kts | 154° |
| 2026-04-20 17:27 | 51.23913 | 0.65767 | 20752 ft | 226 kts | 155° |
| 2026-04-20 17:27 | 51.22539 | 0.67041 | 21380 ft | 231 kts | 155° |
| 2026-04-20 17:28 | 51.21138 | 0.68340 | 21968 ft | 235 kts | 156° |
| 2026-04-20 17:28 | 51.19679 | 0.69686 | 22344 ft | 253 kts | 157° |
| 2026-04-20 17:28 | 51.18063 | 0.71165 | 22368 ft | 282 kts | 156° |
| 2026-04-20 17:28 | 51.16294 | 0.72802 | 22363 ft | 304 kts | 155° |
| 2026-04-20 17:29 | 51.14423 | 0.74546 | 22355 ft | 318 kts | 155° |
| 2026-04-20 17:29 | 51.12487 | 0.76343 | 22340 ft | 326 kts | 155° |
| 2026-04-20 17:29 | 51.10512 | 0.78164 | 22328 ft | 330 kts | 155° |
| 2026-04-20 17:29 | 51.08519 | 0.80001 | 22317 ft | 332 kts | 155° |
| 2026-04-20 17:30 | 51.06521 | 0.81844 | 22308 ft | 332 kts | 155° |
| 2026-04-20 17:30 | 51.04522 | 0.83683 | 22296 ft | 331 kts | 155° |
| 2026-04-20 17:30 | 51.02473 | 0.85293 | 22272 ft | 325 kts | 167° |
| 2026-04-20 17:30 | 51.00311 | 0.86137 | 22263 ft | 316 kts | 181° |
| 2026-04-20 17:31 | 50.98153 | 0.86243 | 22254 ft | 306 kts | 194° |
| 2026-04-20 17:31 | 50.96100 | 0.85672 | 22243 ft | 295 kts | 206° |
| 2026-04-20 17:31 | 50.94182 | 0.84628 | 22242 ft | 291 kts | 210° |
| 2026-04-20 17:31 | 50.92273 | 0.83560 | 22242 ft | 291 kts | 210° |
| 2026-04-20 17:32 | 50.90359 | 0.82501 | 22245 ft | 291 kts | 210° |
| 2026-04-20 17:32 | 50.88448 | 0.81438 | 22246 ft | 291 kts | 210° |
| 2026-04-20 17:32 | 50.86538 | 0.80374 | 22234 ft | 291 kts | 210° |
| 2026-04-20 17:32 | 50.84629 | 0.79311 | 22233 ft | 291 kts | 210° |
| 2026-04-20 17:33 | 50.82717 | 0.78250 | 22234 ft | 291 kts | 210° |
| 2026-04-20 17:33 | 50.80807 | 0.77189 | 22235 ft | 291 kts | 210° |
| 2026-04-20 17:33 | 50.78894 | 0.76129 | 22235 ft | 291 kts | 210° |
| 2026-04-20 17:33 | 50.76983 | 0.75070 | 22232 ft | 291 kts | 210° |
| 2026-04-20 17:34 | 50.75071 | 0.74012 | 22232 ft | 291 kts | 210° |
| 2026-04-20 17:34 | 50.73159 | 0.72954 | 22232 ft | 291 kts | 210° |
| 2026-04-20 17:34 | 50.71247 | 0.71897 | 22232 ft | 291 kts | 210° |
| 2026-04-20 17:34 | 50.69333 | 0.70840 | 22232 ft | 291 kts | 210° |
| 2026-04-20 17:35 | 50.67421 | 0.69786 | 22230 ft | 291 kts | 210° |
| 2026-04-20 17:35 | 50.65508 | 0.68731 | 22230 ft | 291 kts | 210° |
| 2026-04-20 17:35 | 50.63596 | 0.67679 | 22230 ft | 290 kts | 210° |
| 2026-04-20 17:35 | 50.61695 | 0.66634 | 22230 ft | 289 kts | 210° |
| 2026-04-20 17:36 | 50.59797 | 0.65589 | 22227 ft | 289 kts | 210° |
| 2026-04-20 17:36 | 50.57900 | 0.64546 | 22227 ft | 289 kts | 210° |
| 2026-04-20 17:36 | 50.56002 | 0.63505 | 22226 ft | 289 kts | 210° |
| 2026-04-20 17:36 | 50.54104 | 0.62464 | 22226 ft | 289 kts | 210° |
| 2026-04-20 17:37 | 50.52207 | 0.61424 | 22226 ft | 289 kts | 210° |
| 2026-04-20 17:37 | 50.50311 | 0.60386 | 22224 ft | 289 kts | 210° |
| 2026-04-20 17:37 | 50.48413 | 0.59348 | 22224 ft | 289 kts | 210° |
| 2026-04-20 17:37 | 50.46515 | 0.58311 | 22224 ft | 289 kts | 210° |
| 2026-04-20 17:38 | 50.44619 | 0.57275 | 22223 ft | 289 kts | 210° |
| 2026-04-20 17:38 | 50.42747 | 0.56254 | 22224 ft | 289 kts | 210° |
| 2026-04-20 17:38 | 50.40852 | 0.55221 | 22223 ft | 287 kts | 210° |
| 2026-04-20 17:38 | 50.38968 | 0.54197 | 22222 ft | 286 kts | 210° |
| 2026-04-20 17:39 | 50.37087 | 0.53172 | 22220 ft | 286 kts | 210° |
| 2026-04-20 17:39 | 50.35209 | 0.52150 | 22219 ft | 286 kts | 210° |
| 2026-04-20 17:39 | 50.33328 | 0.51128 | 22219 ft | 286 kts | 210° |
| 2026-04-20 17:39 | 50.31449 | 0.50109 | 22213 ft | 286 kts | 210° |
| 2026-04-20 17:40 | 50.29572 | 0.49090 | 22216 ft | 286 kts | 210° |
| 2026-04-20 17:40 | 50.27696 | 0.48074 | 22216 ft | 286 kts | 210° |
| 2026-04-20 17:40 | 50.25816 | 0.47055 | 22216 ft | 286 kts | 210° |
| 2026-04-20 17:40 | 50.23937 | 0.46039 | 22216 ft | 286 kts | 210° |
| 2026-04-20 17:41 | 50.22064 | 0.45027 | 22213 ft | 285 kts | 209° |
| 2026-04-20 17:41 | 50.20190 | 0.44015 | 22213 ft | 285 kts | 209° |
| 2026-04-20 17:41 | 50.18319 | 0.43005 | 22214 ft | 284 kts | 209° |
| 2026-04-20 17:41 | 50.16455 | 0.42001 | 22217 ft | 283 kts | 209° |
| 2026-04-20 17:42 | 50.14595 | 0.40998 | 22213 ft | 283 kts | 209° |
| 2026-04-20 17:42 | 50.12737 | 0.39997 | 22210 ft | 282 kts | 209° |
| 2026-04-20 17:42 | 50.10881 | 0.38999 | 22209 ft | 282 kts | 209° |
| 2026-04-20 17:42 | 50.09026 | 0.38002 | 22209 ft | 282 kts | 209° |
| 2026-04-20 17:43 | 50.07173 | 0.37007 | 22205 ft | 282 kts | 209° |
| 2026-04-20 17:43 | 50.05319 | 0.36012 | 22203 ft | 282 kts | 209° |
| 2026-04-20 17:43 | 50.03471 | 0.35021 | 22203 ft | 282 kts | 209° |
| 2026-04-20 17:43 | 50.01587 | 0.34006 | 21862 ft | 289 kts | 208° |
| 2026-04-20 17:44 | 49.99692 | 0.32995 | 21498 ft | 286 kts | 208° |
| 2026-04-20 17:44 | 49.97815 | 0.31996 | 21133 ft | 285 kts | 208° |
| 2026-04-20 17:44 | 49.95943 | 0.30994 | 20740 ft | 284 kts | 207° |
| 2026-04-20 17:44 | 49.94070 | 0.29992 | 20387 ft | 285 kts | 207° |
| 2026-04-20 17:45 | 49.92192 | 0.28989 | 20042 ft | 286 kts | 207° |
| 2026-04-20 17:45 | 49.90296 | 0.27977 | 19664 ft | 290 kts | 206° |
| 2026-04-20 17:45 | 49.88384 | 0.26959 | 19279 ft | 292 kts | 206° |
| 2026-04-20 17:45 | 49.86461 | 0.25938 | 18886 ft | 292 kts | 205° |
| 2026-04-20 17:46 | 49.84539 | 0.24916 | 18507 ft | 293 kts | 205° |
| 2026-04-20 17:46 | 49.82605 | 0.23888 | 18076 ft | 294 kts | 205° |
| 2026-04-20 17:46 | 49.80672 | 0.22862 | 17645 ft | 294 kts | 205° |
| 2026-04-20 17:46 | 49.78734 | 0.21835 | 17217 ft | 295 kts | 204° |
| 2026-04-20 17:47 | 49.76793 | 0.20807 | 16798 ft | 295 kts | 204° |
| 2026-04-20 17:47 | 49.74849 | 0.19777 | 16387 ft | 296 kts | 204° |
| 2026-04-20 17:47 | 49.72915 | 0.18755 | 16189 ft | 290 kts | 204° |
| 2026-04-20 17:47 | 49.72089 | 0.18320 | 16190 ft | 289 kts | 204° |